Time;durP1;ratioP1;P1;durP2;ratioP2;P2;SDS_P1;SDS_P2;PMS_P1;PMS_P2;Temp;Humidity;BMP_temperature;BMP_pressure;BME280_temperature;BME280_humidity;BME280_pressure;Samples;Min_cycle;Max_cycle;Signal;HPM_P1;HPM_P2
2022/09/26 00:01:31;;;;;;;0.50;0.50;;;6.10;99.90;;;;;;5074747;28;20463;-77
2022/09/26 00:04:03;;;;;;;0.50;0.43;;;6.00;99.90;;;;;;5075666;28;20431;-78
2022/09/26 00:06:30;;;;;;;0.33;0.33;;;5.90;99.90;;;;;;5072952;28;20427;-78
2022/09/26 00:08:57;;;;;;;0.50;0.50;;;5.90;99.90;;;;;;5075493;28;20437;-77
2022/09/26 00:11:28;;;;;;;0.50;0.50;;;5.80;99.90;;;;;;5077318;28;20477;-77
2022/09/26 00:13:57;;;;;;;0.40;0.40;;;5.70;99.90;;;;;;5077599;28;20454;-77
2022/09/26 00:16:25;;;;;;;0.57;0.57;;;5.80;99.90;;;;;;5076661;28;20433;-77
2022/09/26 00:18:54;;;;;;;0.25;0.25;;;5.90;99.90;;;;;;5076334;28;20721;-78
2022/09/26 00:21:24;;;;;;;0.55;0.55;;;5.90;99.90;;;;;;5074359;28;20534;-77
2022/09/26 00:23:51;;;;;;;0.55;0.55;;;5.90;99.90;;;;;;5074713;28;20439;-77
2022/09/26 00:26:22;;;;;;;0.20;0.20;;;5.90;99.90;;;;;;5075829;28;20907;-77
2022/09/26 00:28:49;;;;;;;0.80;0.32;;;5.80;99.90;;;;;;5074906;28;20439;-78
2022/09/26 00:31:22;;;;;;;0.50;0.50;;;5.70;99.90;;;;;;5073713;28;20427;-78
2022/09/26 00:33:49;;;;;;;0.45;0.45;;;5.70;99.90;;;;;;5074017;28;20434;-78
2022/09/26 00:36:15;;;;;;;0.60;0.60;;;5.70;99.90;;;;;;5072658;28;20427;-77
2022/09/26 00:38:43;;;;;;;0.30;0.30;;;5.80;99.90;;;;;;5072296;28;20462;-77
2022/09/26 00:41:11;;;;;;;0.50;0.50;;;5.70;99.90;;;;;;5072377;28;20841;-78
2022/09/26 00:43:41;;;;;;;0.30;0.30;;;5.80;99.90;;;;;;5071229;28;20431;-77
2022/09/26 00:46:29;;;;;;;0.43;0.43;;;5.90;99.90;;;;;;5071159;28;20439;-78
2022/09/26 00:49:11;;;;;;;0.40;0.40;;;5.90;99.90;;;;;;5071509;28;20497;-78
2022/09/26 00:51:40;;;;;;;0.40;0.40;;;5.90;99.90;;;;;;5071856;28;20423;-78
2022/09/26 00:54:10;;;;;;;0.45;0.45;;;5.80;99.90;;;;;;5073838;28;20430;-78
2022/09/26 00:56:47;;;;;;;0.47;0.47;;;5.70;99.90;;;;;;5077939;28;20494;-77
2022/09/26 00:59:31;;;;;;;0.70;0.70;;;5.80;99.90;;;;;;5077237;28;20419;-78
2022/09/26 01:02:01;;;;;;;0.35;0.35;;;6.00;99.90;;;;;;5076458;28;20427;-78
2022/09/26 01:04:30;;;;;;;0.22;0.22;;;6.10;99.90;;;;;;5073984;28;20844;-78
2022/09/26 01:06:59;;;;;;;0.30;0.30;;;6.00;99.90;;;;;;5075972;28;20885;-78
2022/09/26 01:09:29;;;;;;;0.22;0.22;;;5.90;99.90;;;;;;5074374;28;20941;-78
2022/09/26 01:12:00;;;;;;;0.60;0.40;;;5.90;99.90;;;;;;5073877;28;20951;-78
2022/09/26 01:14:27;;;;;;;0.32;0.32;;;5.90;99.90;;;;;;5072891;28;20427;-78
2022/09/26 01:16:55;;;;;;;0.43;0.43;;;5.90;99.90;;;;;;5072841;28;20806;-78
2022/09/26 01:19:50;;;;;;;0.40;0.30;;;5.90;99.90;;;;;;5071974;28;20843;-78
2022/09/26 01:23:04;;;;;;;0.80;0.43;;;5.80;99.90;;;;;;5073145;28;20433;-78
2022/09/26 01:26:15;;;;;;;2.17;0.52;;;5.70;99.90;;;;;;5073137;28;20798;-78
2022/09/26 01:29:04;;;;;;;0.40;0.40;;;5.70;99.90;;;;;;5072680;28;20431;-78
2022/09/26 01:32:47;;;;;;;0.50;0.50;;;5.70;99.90;;;;;;5071268;28;20514;-78
2022/09/26 01:34:55;;;;;;;0.30;0.30;;;5.70;99.90;;;;;;5072019;28;20490;-78
2022/09/26 01:37:39;;;;;;;2.20;0.50;;;5.80;99.90;;;;;;5072550;28;20909;-78
2022/09/26 01:40:24;;;;;;;0.60;0.60;;;5.80;99.90;;;;;;5072796;28;20549;-78
2022/09/26 01:43:04;;;;;;;0.40;0.32;;;5.80;99.90;;;;;;5072298;28;20431;-78
2022/09/26 01:45:53;;;;;;;0.38;0.38;;;5.80;99.90;;;;;;5071732;28;20449;-77
2022/09/26 01:48:29;;;;;;;0.60;0.60;;;5.80;99.90;;;;;;5071626;28;20458;-79
2022/09/26 01:51:04;;;;;;;0.68;0.68;;;5.80;99.90;;;;;;5072091;28;20467;-77
2022/09/26 01:53:45;;;;;;;0.40;0.40;;;5.80;99.90;;;;;;5071837;28;20434;-77
2022/09/26 01:56:17;;;;;;;0.45;0.45;;;5.80;99.90;;;;;;5071750;28;20812;-77
2022/09/26 01:58:53;;;;;;;0.52;0.45;;;5.80;99.90;;;;;;5072909;28;20430;-77
2022/09/26 02:01:26;;;;;;;0.40;0.40;;;5.70;99.90;;;;;;5055251;28;20411;-77
2022/09/26 02:03:57;;;;;;;1.08;0.40;;;5.70;99.90;;;;;;5071195;28;20438;-77
2022/09/26 02:06:38;;;;;;;0.93;0.32;;;5.80;99.90;;;;;;5071356;28;20510;-77
2022/09/26 02:09:31;;;;;;;0.32;0.32;;;5.90;99.90;;;;;;5073087;28;20514;-77
2022/09/26 02:12:03;;;;;;;0.60;0.60;;;5.90;99.90;;;;;;5077038;28;20437;-79
2022/09/26 02:14:37;;;;;;;0.25;0.25;;;5.90;99.90;;;;;;5076141;28;20831;-79
2022/09/26 02:17:19;;;;;;;0.30;0.30;;;5.90;99.90;;;;;;5075006;28;20902;-77
2022/09/26 02:20:02;;;;;;;0.40;0.40;;;5.80;99.90;;;;;;5075291;28;20825;-79
2022/09/26 02:22:33;;;;;;;1.35;0.45;;;5.80;99.90;;;;;;5074523;28;20439;-79
2022/09/26 02:25:02;;;;;;;1.30;0.60;;;5.80;99.90;;;;;;5075457;28;20435;-77
2022/09/26 02:27:29;;;;;;;0.22;0.22;;;5.80;99.90;;;;;;5074412;28;20434;-77
2022/09/26 02:29:59;;;;;;;0.45;0.45;;;5.90;99.90;;;;;;5073448;28;20504;-77
2022/09/26 02:32:30;;;;;;;0.90;0.90;;;5.90;99.90;;;;;;5074915;28;20489;-77
2022/09/26 02:34:58;;;;;;;0.22;0.22;;;5.90;99.90;;;;;;5074441;28;20423;-76
2022/09/26 02:37:27;;;;;;;0.60;0.50;;;5.80;99.90;;;;;;5074918;28;20426;-77
2022/09/26 02:39:55;;;;;;;0.30;0.30;;;5.80;99.90;;;;;;5073716;28;20432;-77
2022/09/26 02:42:47;;;;;;;0.45;0.45;;;5.70;99.90;;;;;;5074814;28;21001;-78
2022/09/26 02:45:31;;;;;;;0.40;0.40;;;5.60;99.90;;;;;;5074395;28;20434;-77
2022/09/26 02:48:23;;;;;;;0.63;0.63;;;5.60;99.90;;;;;;5075047;28;20433;-77
2022/09/26 02:50:51;;;;;;;0.20;0.20;;;5.70;99.90;;;;;;5074584;28;20909;-78
2022/09/26 02:53:26;;;;;;;0.50;0.50;;;5.70;99.90;;;;;;5074546;28;20431;-78
2022/09/26 02:56:03;;;;;;;0.47;0.47;;;5.70;99.90;;;;;;5074666;28;20423;-78
2022/09/26 02:58:58;;;;;;;0.80;0.50;;;5.80;99.90;;;;;;5074532;28;20439;-77
2022/09/26 03:01:52;;;;;;;0.50;0.50;;;5.90;99.90;;;;;;5074616;28;20771;-77
2022/09/26 03:04:30;;;;;;;0.50;0.50;;;5.90;99.90;;;;;;5074621;28;20485;-77
2022/09/26 03:07:03;;;;;;;0.47;0.40;;;6.00;99.90;;;;;;5074583;28;20428;-77
2022/09/26 03:09:30;;;;;;;0.50;0.50;;;6.00;99.90;;;;;;5074473;28;20489;-78
2022/09/26 03:12:00;;;;;;;0.70;0.70;;;6.00;99.90;;;;;;5074275;28;20845;-77
2022/09/26 03:14:30;;;;;;;0.70;0.70;;;6.20;99.90;;;;;;5073895;28;20423;-78
2022/09/26 03:16:58;;;;;;;0.40;0.40;;;6.30;99.90;;;;;;5073863;28;20424;-77
2022/09/26 03:19:34;;;;;;;0.38;0.38;;;6.30;99.90;;;;;;5073498;28;20459;-77
2022/09/26 03:22:01;;;;;;;0.70;0.50;;;6.30;99.90;;;;;;5073808;28;20431;-77
2022/09/26 03:24:28;;;;;;;0.30;0.30;;;6.20;99.90;;;;;;5073815;28;20917;-77
2022/09/26 03:26:55;;;;;;;0.60;0.60;;;6.30;99.90;;;;;;5073828;28;20801;-77
2022/09/26 03:29:22;;;;;;;1.08;0.60;;;6.20;99.90;;;;;;5072814;28;20427;-77
2022/09/26 03:31:52;;;;;;;0.77;0.77;;;6.20;99.90;;;;;;5074204;28;20514;-77
2022/09/26 03:34:20;;;;;;;0.40;0.40;;;6.10;99.90;;;;;;5073659;28;20474;-77
2022/09/26 03:36:46;;;;;;;0.65;0.52;;;6.00;99.90;;;;;;5073874;28;20435;-77
2022/09/26 03:39:16;;;;;;;0.50;0.50;;;5.90;99.90;;;;;;5073846;28;20419;-77
2022/09/26 03:41:42;;;;;;;0.55;0.55;;;5.80;99.90;;;;;;5073695;28;20428;-77
2022/09/26 03:44:10;;;;;;;0.57;0.57;;;5.70;99.90;;;;;;5073685;28;20425;-77
2022/09/26 03:46:37;;;;;;;0.45;0.45;;;5.60;99.90;;;;;;5073644;28;20447;-77
2022/09/26 03:49:05;;;;;;;0.60;0.60;;;5.40;99.90;;;;;;5073615;28;20431;-77
2022/09/26 03:51:32;;;;;;;0.57;0.57;;;5.30;99.90;;;;;;5073562;28;20423;-77
2022/09/26 03:53:59;;;;;;;0.43;0.43;;;5.20;99.90;;;;;;5073275;28;20438;-78
2022/09/26 03:56:26;;;;;;;0.93;0.93;;;5.10;99.90;;;;;;5073223;28;20522;-78
2022/09/26 03:58:52;;;;;;;0.30;0.30;;;5.00;99.90;;;;;;5073517;28;20465;-77
2022/09/26 04:01:21;;;;;;;0.63;0.63;;;5.10;99.90;;;;;;5073392;28;20478;-78
2022/09/26 04:03:49;;;;;;;0.40;0.40;;;5.20;99.90;;;;;;5073302;28;20429;-77
2022/09/26 04:06:18;;;;;;;1.50;0.70;;;5.30;99.90;;;;;;5073301;28;20441;-78
2022/09/26 04:08:48;;;;;;;0.40;0.40;;;5.30;99.90;;;;;;5072153;28;20427;-78
2022/09/26 04:11:20;;;;;;;0.60;0.60;;;5.40;99.90;;;;;;5073292;28;20427;-77
2022/09/26 04:13:48;;;;;;;0.47;0.47;;;5.40;99.90;;;;;;5071641;28;20510;-77
2022/09/26 04:16:20;;;;;;;0.52;0.52;;;5.50;99.90;;;;;;5073201;28;20424;-77
2022/09/26 04:18:47;;;;;;;0.40;0.40;;;5.50;99.90;;;;;;5073618;28;20921;-78
2022/09/26 04:21:14;;;;;;;0.40;0.40;;;5.50;99.90;;;;;;5073008;28;20431;-77
2022/09/26 04:23:44;;;;;;;0.50;0.50;;;5.50;99.90;;;;;;5073218;28;20539;-77
2022/09/26 04:26:17;;;;;;;0.40;0.40;;;5.50;99.90;;;;;;5072547;28;20966;-76
2022/09/26 04:28:53;;;;;;;0.40;0.40;;;5.60;99.90;;;;;;5073233;28;20485;-77
2022/09/26 04:31:20;;;;;;;0.35;0.35;;;5.60;99.90;;;;;;5072522;28;20428;-77
2022/09/26 04:33:47;;;;;;;0.50;0.50;;;5.70;99.90;;;;;;5072775;28;20450;-76
2022/09/26 04:36:15;;;;;;;0.60;0.60;;;5.70;99.90;;;;;;5072751;28;20427;-76
2022/09/26 04:38:48;;;;;;;0.30;0.22;;;5.80;99.90;;;;;;5072469;28;20797;-76
2022/09/26 04:41:20;;;;;;;0.43;0.43;;;5.80;99.90;;;;;;5072779;28;20790;-77
2022/09/26 04:43:47;;;;;;;0.20;0.20;;;5.90;99.90;;;;;;5072440;28;20434;-77
2022/09/26 04:46:16;;;;;;;0.45;0.45;;;6.00;99.90;;;;;;5072403;28;20431;-76
2022/09/26 04:48:51;;;;;;;0.30;0.30;;;6.00;99.90;;;;;;5072817;28;20436;-77
2022/09/26 04:51:20;;;;;;;0.60;0.60;;;6.10;99.90;;;;;;5072583;28;20438;-77
2022/09/26 04:53:47;;;;;;;0.60;0.60;;;6.10;99.90;;;;;;5071324;28;20431;-77
2022/09/26 04:56:27;;;;;;;1.15;1.05;;;6.10;99.90;;;;;;5071020;28;20438;-77
2022/09/26 04:58:55;;;;;;;0.73;0.73;;;6.20;99.90;;;;;;5071394;28;20430;-78
2022/09/26 05:01:25;;;;;;;0.52;0.50;;;6.20;99.90;;;;;;5073023;28;20424;-77
2022/09/26 05:03:56;;;;;;;0.60;0.55;;;6.30;99.90;;;;;;5073505;28;20481;-78
2022/09/26 05:06:23;;;;;;;0.30;0.30;;;6.40;99.90;;;;;;5072322;28;20431;-78
2022/09/26 05:08:49;;;;;;;0.60;0.60;;;6.40;99.90;;;;;;5072270;28;20447;-79
2022/09/26 05:11:17;;;;;;;0.87;0.40;;;6.50;99.90;;;;;;5071502;28;20423;-80
2022/09/26 05:13:44;;;;;;;0.50;0.35;;;6.50;99.90;;;;;;5071613;28;20797;-80
2022/09/26 05:16:16;;;;;;;0.43;0.43;;;6.50;99.90;;;;;;5071607;28;20431;-80
2022/09/26 05:18:43;;;;;;;0.80;0.60;;;6.50;99.90;;;;;;5071803;28;20423;-80
2022/09/26 05:21:10;;;;;;;0.32;0.32;;;6.50;99.90;;;;;;5071749;28;20442;-80
2022/09/26 05:26:40;;;;;;;1.60;0.70;;;6.60;99.90;;;;;;5071348;28;20431;-79
2022/09/26 05:29:08;;;;;;;0.30;0.30;;;6.70;99.90;;;;;;5071203;28;20442;-80
2022/09/26 05:31:38;;;;;;;0.30;0.30;;;6.70;99.90;;;;;;5070223;28;20971;-79
2022/09/26 05:34:09;;;;;;;0.47;0.47;;;6.80;99.90;;;;;;5070827;28;20817;-80
2022/09/26 05:36:41;;;;;;;0.50;0.45;;;6.90;99.90;;;;;;5071341;28;20423;-80
2022/09/26 05:42:14;;;;;;;0.50;0.50;;;6.90;99.90;;;;;;5048689;28;20425;-80
2022/09/26 05:44:40;;;;;;;0.45;0.45;;;7.00;99.90;;;;;;5069437;28;20433;-80
2022/09/26 05:47:07;;;;;;;0.70;0.70;;;7.10;99.90;;;;;;5075104;28;20515;-80
2022/09/26 05:49:37;;;;;;;0.60;0.60;;;7.10;99.90;;;;;;5074946;28;20427;-80
2022/09/26 05:52:04;;;;;;;0.90;0.90;;;7.20;99.90;;;;;;5074808;28;20518;-80
2022/09/26 05:54:31;;;;;;;0.60;0.60;;;7.30;99.90;;;;;;5074753;28;21024;-80
2022/09/26 05:56:57;;;;;;;0.80;0.40;;;7.40;99.90;;;;;;5075162;28;20431;-80
2022/09/26 05:59:24;;;;;;;0.40;0.40;;;7.50;99.90;;;;;;5074600;28;20424;-80
2022/09/26 06:01:51;;;;;;;0.70;0.70;;;7.50;99.90;;;;;;5074616;28;20427;-80
2022/09/26 06:04:18;;;;;;;0.60;0.60;;;7.50;99.90;;;;;;5074607;28;20427;-80
2022/09/26 06:06:45;;;;;;;0.75;0.75;;;7.40;99.90;;;;;;5074602;28;20457;-80
2022/09/26 06:09:12;;;;;;;0.60;0.60;;;7.30;99.90;;;;;;5074732;28;20431;-80
2022/09/26 06:11:38;;;;;;;0.50;0.50;;;7.30;99.90;;;;;;5074454;28;20428;-80
2022/09/26 06:14:08;;;;;;;0.47;0.47;;;7.20;99.90;;;;;;5074058;28;20427;-80
2022/09/26 06:16:35;;;;;;;0.60;0.60;;;7.20;99.90;;;;;;5074579;28;20431;-80
2022/09/26 06:19:02;;;;;;;0.40;0.40;;;7.30;99.90;;;;;;5074526;28;20478;-80
2022/09/26 06:21:29;;;;;;;0.40;0.40;;;7.30;99.90;;;;;;5073492;28;20434;-80
2022/09/26 06:23:56;;;;;;;0.52;0.52;;;7.30;99.90;;;;;;5074390;28;20434;-80
2022/09/26 06:26:24;;;;;;;0.70;0.70;;;7.40;99.90;;;;;;5072780;28;20438;-80
2022/09/26 06:28:59;;;;;;;0.60;0.50;;;7.40;99.90;;;;;;5073499;28;20550;-80
2022/09/26 06:31:27;;;;;;;0.57;0.57;;;7.50;99.90;;;;;;5074065;28;20461;-79
2022/09/26 06:33:57;;;;;;;0.63;0.63;;;7.50;99.90;;;;;;5072439;28;20431;-80
2022/09/26 06:36:34;;;;;;;0.75;0.75;;;7.60;99.90;;;;;;5073229;28;20434;-81
2022/09/26 06:39:01;;;;;;;0.73;0.70;;;7.70;99.90;;;;;;5074225;28;20439;-80
2022/09/26 06:41:28;;;;;;;0.40;0.40;;;7.90;99.90;;;;;;5074449;28;20423;-80
2022/09/26 06:43:57;;;;;;;2.90;0.60;;;8.10;99.90;;;;;;5072429;28;20431;-80
2022/09/26 06:46:24;;;;;;;0.43;0.43;;;8.60;99.90;;;;;;5073858;28;20970;-81
2022/09/26 06:48:51;;;;;;;0.43;0.40;;;9.00;99.90;;;;;;5072605;28;20431;-80
2022/09/26 06:51:18;;;;;;;0.50;0.50;;;9.40;99.90;;;;;;5072809;28;20423;-81
2022/09/26 06:53:48;;;;;;;0.90;0.85;;;9.60;99.90;;;;;;5073145;28;20787;-81
2022/09/26 06:56:20;;;;;;;0.65;0.65;;;9.80;99.90;;;;;;5073611;28;20782;-81
2022/09/26 06:58:48;;;;;;;0.90;0.60;;;9.90;99.90;;;;;;5073529;28;20427;-80
2022/09/26 07:01:15;;;;;;;0.60;0.60;;;10.10;99.90;;;;;;5073690;28;20434;-80
2022/09/26 07:03:42;;;;;;;0.57;0.57;;;10.20;99.90;;;;;;5073359;28;20461;-81
2022/09/26 07:06:12;;;;;;;0.40;0.40;;;10.40;99.90;;;;;;5073737;28;20428;-81
2022/09/26 07:08:39;;;;;;;0.40;0.40;;;10.50;99.90;;;;;;5073329;28;20438;-81
2022/09/26 07:11:26;;;;;;;0.90;0.90;;;10.50;99.90;;;;;;5073918;28;20758;-81
2022/09/26 07:14:15;;;;;;;0.65;0.65;;;10.60;99.90;;;;;;5073203;28;20477;-81
2022/09/26 07:16:48;;;;;;;0.80;0.80;;;10.80;99.90;;;;;;5073621;28;20431;-81
2022/09/26 07:19:15;;;;;;;0.75;0.75;;;11.10;99.90;;;;;;5073375;28;20427;-81
2022/09/26 07:21:42;;;;;;;0.60;0.60;;;11.40;99.90;;;;;;5073637;28;20427;-81
2022/09/26 07:24:12;;;;;;;0.50;0.50;;;11.50;99.90;;;;;;5073131;28;20428;-81
2022/09/26 07:26:41;;;;;;;0.90;0.90;;;11.80;99.90;;;;;;5073756;28;20577;-80
2022/09/26 07:29:08;;;;;;;1.20;0.95;;;12.00;99.90;;;;;;5073737;28;20432;-79
2022/09/26 07:31:35;;;;;;;0.73;0.70;;;11.70;99.90;;;;;;5072995;28;20477;-79
2022/09/26 07:34:03;;;;;;;0.70;0.70;;;11.80;99.90;;;;;;5073489;28;20427;-80
2022/09/26 07:36:31;;;;;;;0.80;0.80;;;12.20;99.90;;;;;;5073209;28;20431;-79
2022/09/26 07:38:58;;;;;;;0.80;0.80;;;12.20;99.90;;;;;;5072413;28;20434;-78
2022/09/26 07:41:25;;;;;;;1.10;0.73;;;12.30;99.90;;;;;;5072986;28;20427;-79
2022/09/26 07:43:52;;;;;;;0.90;0.90;;;12.10;99.90;;;;;;5072104;28;20510;-78
2022/09/26 07:52:16;;;;;;;0.95;0.95;;;11.80;99.90;;;;;;5072288;28;20428;-79
2022/09/26 07:54:43;;;;;;;1.15;1.15;;;11.80;99.90;;;;;;5072378;28;20929;-79
2022/09/26 07:57:09;;;;;;;1.00;0.90;;;12.30;99.90;;;;;;5072741;28;20901;-80
2022/09/26 07:59:36;;;;;;;0.70;0.70;;;12.60;99.90;;;;;;5073032;28;20505;-79
2022/09/26 08:02:03;;;;;;;3.13;1.48;;;12.80;99.90;;;;;;5072574;28;20420;-80
2022/09/26 08:04:29;;;;;;;2.58;1.27;;;13.30;99.90;;;;;;5074988;28;20428;-80
2022/09/26 08:06:58;;;;;;;1.02;1.02;;;13.30;99.90;;;;;;5071627;28;20431;-79
2022/09/26 08:09:24;;;;;;;2.13;0.70;;;13.40;99.90;;;;;;5072052;28;20431;-79
2022/09/26 08:11:52;;;;;;;1.13;1.03;;;13.50;99.90;;;;;;5072432;28;20427;-80
2022/09/26 08:14:18;;;;;;;1.60;1.00;;;13.60;99.90;;;;;;5070122;28;20528;-80
2022/09/26 08:16:45;;;;;;;0.77;0.77;;;13.50;99.90;;;;;;5071999;28;20428;-80
2022/09/26 08:19:16;;;;;;;1.00;1.00;;;13.20;99.90;;;;;;5071804;28;20419;-79
2022/09/26 08:21:43;;;;;;;0.80;0.80;;;13.20;99.90;;;;;;5072140;28;20430;-80
2022/09/26 08:24:09;;;;;;;1.17;1.08;;;13.10;99.90;;;;;;5071316;28;20428;-79
2022/09/26 08:26:39;;;;;;;0.90;0.90;;;12.90;99.90;;;;;;5071789;28;20427;-81
2022/09/26 08:29:11;;;;;;;0.70;0.70;;;12.80;99.90;;;;;;5072056;28;20439;-81
2022/09/26 08:31:44;;;;;;;0.70;0.70;;;12.70;99.90;;;;;;5072091;28;20485;-77
2022/09/26 08:34:14;;;;;;;0.85;0.85;;;12.70;99.90;;;;;;5071093;28;20427;-81
2022/09/26 08:36:41;;;;;;;0.82;0.82;;;12.90;99.90;;;;;;5071454;28;20428;-80
2022/09/26 08:39:09;;;;;;;1.80;0.90;;;13.00;99.90;;;;;;5071389;28;20833;-80
2022/09/26 08:41:44;;;;;;;0.65;0.65;;;13.50;99.90;;;;;;5070689;28;20428;-80
2022/09/26 08:44:21;;;;;;;1.73;0.73;;;13.60;99.90;;;;;;5069886;28;20443;-81
2022/09/26 08:47:00;;;;;;;0.70;0.70;;;13.70;99.90;;;;;;5071237;28;20431;-78
2022/09/26 08:49:41;;;;;;;1.27;0.90;;;13.70;99.90;;;;;;5080256;28;20489;-79
2022/09/26 08:52:45;;;;;;;0.63;0.63;;;13.30;99.90;;;;;;5072106;28;20552;-80
2022/09/26 08:55:31;;;;;;;0.68;0.68;;;13.00;99.90;;;;;;5071194;28;20431;-80
2022/09/26 08:58:03;;;;;;;0.60;0.60;;;12.70;99.90;;;;;;5070469;28;20438;-81
2022/09/26 09:00:39;;;;;;;0.52;0.52;;;12.60;99.90;;;;;;5072137;28;20431;-81
2022/09/26 09:03:06;;;;;;;0.75;0.75;;;12.40;99.90;;;;;;5071611;28;20450;-79
2022/09/26 09:05:39;;;;;;;0.70;0.70;;;12.30;99.90;;;;;;5070410;28;20433;-79
2022/09/26 09:08:20;;;;;;;0.70;0.70;;;12.30;99.90;;;;;;5072099;28;20923;-79
2022/09/26 09:11:24;;;;;;;1.05;0.70;;;12.40;99.90;;;;;;5071616;28;20424;-80
2022/09/26 09:14:19;;;;;;;0.77;0.77;;;12.60;99.90;;;;;;5070960;28;20438;-79
2022/09/26 09:17:03;;;;;;;1.02;0.93;;;12.90;99.90;;;;;;5071666;28;20814;-80
2022/09/26 09:19:38;;;;;;;1.70;0.70;;;12.80;99.90;;;;;;5075784;28;20902;-81
2022/09/26 09:22:27;;;;;;;0.73;0.73;;;13.00;99.90;;;;;;5075648;28;20423;-80
2022/09/26 09:25:09;;;;;;;1.00;0.90;;;13.20;99.90;;;;;;5075165;28;20438;-79
2022/09/26 09:27:45;;;;;;;0.77;0.77;;;13.70;99.90;;;;;;5075800;28;20431;-79
2022/09/26 09:30:35;;;;;;;0.57;0.57;;;13.80;99.90;;;;;;5075379;28;20427;-79
2022/09/26 09:33:14;;;;;;;1.20;0.82;;;13.90;99.90;;;;;;5075590;28;20628;-79
2022/09/26 09:35:48;;;;;;;0.60;0.60;;;14.40;99.90;;;;;;5074754;28;20553;-79
2022/09/26 09:38:25;;;;;;;0.60;0.60;;;14.30;99.90;;;;;;5075585;28;20423;-80
2022/09/26 09:40:58;;;;;;;0.60;0.60;;;13.90;99.90;;;;;;5075667;28;20434;-79
2022/09/26 09:43:36;;;;;;;0.40;0.40;;;13.60;99.90;;;;;;5075291;28;20430;-77
2022/09/26 09:46:28;;;;;;;0.50;0.50;;;13.60;99.90;;;;;;5075590;28;20427;-79
2022/09/26 09:49:01;;;;;;;0.43;0.43;;;13.70;99.90;;;;;;5075140;28;20424;-80
2022/09/26 09:51:46;;;;;;;0.57;0.57;;;13.80;99.90;;;;;;5075298;28;20423;-79
2022/09/26 09:54:19;;;;;;;1.42;0.40;;;13.80;99.90;;;;;;5074244;28;20442;-79
2022/09/26 09:56:55;;;;;;;0.57;0.57;;;14.00;99.90;;;;;;5075060;28;20476;-79
2022/09/26 09:59:35;;;;;;;0.50;0.50;;;14.40;99.90;;;;;;5073932;28;20427;-80
2022/09/26 10:02:32;;;;;;;0.70;0.60;;;14.60;99.90;;;;;;5074874;28;20431;-80
2022/09/26 10:05:07;;;;;;;0.40;0.40;;;;;;;;;;5074868;28;20438;-76
2022/09/26 10:07:34;;;;;;;0.30;0.30;;;15.20;99.90;;;;;;5073183;28;20844;-79
2022/09/26 10:10:01;;;;;;;0.40;0.40;;;17.00;99.90;;;;;;5074032;28;20437;-79
2022/09/26 10:12:33;;;;;;;0.40;0.40;;;17.50;99.90;;;;;;5073260;28;20526;-80
2022/09/26 10:15:06;;;;;;;0.40;0.40;;;18.20;99.90;;;;;;5074035;28;20438;-78
2022/09/26 10:17:34;;;;;;;0.40;0.40;;;18.70;99.90;;;;;;5074199;28;20937;-80
2022/09/26 10:20:01;;;;;;;0.20;0.20;;;19.20;99.90;;;;;;5073995;28;20833;-79
2022/09/26 10:22:36;;;;;;;0.30;0.30;;;20.00;99.90;;;;;;5073132;28;20432;-78
2022/09/26 10:25:20;;;;;;;0.50;0.50;;;20.50;99.90;;;;;;5073677;28;20434;-80
2022/09/26 10:27:51;;;;;;;0.40;0.40;;;19.50;99.90;;;;;;5074076;28;20481;-79
2022/09/26 10:30:18;;;;;;;0.30;0.30;;;18.20;99.90;;;;;;5073182;28;20777;-79
2022/09/26 10:32:52;;;;;;;0.50;0.50;;;17.30;99.90;;;;;;5072667;28;20437;-79
2022/09/26 10:35:40;;;;;;;0.40;0.40;;;16.90;99.90;;;;;;5073977;28;20435;-78
2022/09/26 10:38:26;;;;;;;0.77;0.50;;;16.30;99.90;;;;;;5074262;28;20529;-79
2022/09/26 10:40:58;;;;;;;0.60;0.60;;;16.00;99.90;;;;;;5073766;28;21008;-78
2022/09/26 10:43:30;;;;;;;0.47;0.47;;;15.90;99.90;;;;;;5073171;28;20427;-78
2022/09/26 10:46:10;;;;;;;0.30;0.30;;;16.30;99.90;;;;;;5072445;28;20451;-77
2022/09/26 10:48:47;;;;;;;1.40;0.40;;;16.60;99.90;;;;;;5073851;28;20423;-76
2022/09/26 10:51:22;;;;;;;0.50;0.50;;;17.10;99.90;;;;;;5073276;28;20928;-77
2022/09/26 10:53:52;;;;;;;0.70;0.50;;;17.30;99.90;;;;;;5072661;28;20432;-78
2022/09/26 10:56:25;;;;;;;0.40;0.40;;;17.60;99.90;;;;;;5072551;28;20521;-77
2022/09/26 10:58:57;;;;;;;0.40;0.40;;;17.70;99.90;;;;;;5073209;28;20428;-77
2022/09/26 11:01:29;;;;;;;0.80;0.45;;;17.90;99.90;;;;;;5073693;28;20888;-78
2022/09/26 11:07:17;;;;;;;0.40;0.40;;;17.70;99.90;;;;;;5076147;28;21105;-76
2022/09/26 11:09:45;;;;;;;0.30;0.30;;;17.70;99.90;;;;;;5073446;28;20489;-78
2022/09/26 11:12:24;;;;;;;0.30;0.30;;;17.60;99.90;;;;;;5072844;28;20436;-78
2022/09/26 11:15:07;;;;;;;0.32;0.32;;;17.70;99.90;;;;;;5072064;28;20427;-78
2022/09/26 11:17:46;;;;;;;0.70;0.47;;;18.10;99.90;;;;;;5072385;28;20794;-78
2022/09/26 11:20:52;;;;;;;0.40;0.40;;;18.20;99.90;;;;;;5072849;28;20502;-76
2022/09/26 11:23:43;;;;;;;0.70;0.40;;;17.90;99.90;;;;;;5010460;28;20432;-75
2022/09/26 11:26:32;;;;;;;0.60;0.40;;;17.60;99.90;;;;;;5010130;28;20424;-77
2022/09/26 11:29:35;;;;;;;0.30;0.30;;;17.30;99.90;;;;;;5010071;28;20467;-78
2022/09/26 11:32:04;;;;;;;0.30;0.30;;;16.90;99.90;;;;;;5010183;28;20432;-77
2022/09/26 11:34:35;;;;;;;0.47;0.47;;;17.20;99.90;;;;;;5009234;28;20436;-78
2022/09/26 11:37:17;;;;;;;0.30;0.30;;;17.20;99.90;;;;;;5009658;28;20440;-78
2022/09/26 11:39:57;;;;;;;0.47;0.47;;;17.60;99.90;;;;;;5009644;28;20428;-78
2022/09/26 11:42:56;;;;;;;0.30;0.30;;;18.30;99.90;;;;;;5008349;28;20428;-73
2022/09/26 11:46:03;;;;;;;0.25;0.25;;;19.50;99.90;;;;;;5009036;28;20437;-76
2022/09/26 11:49:09;;;;;;;0.40;0.40;;;19.40;99.90;;;;;;5008975;28;20927;-76
2022/09/26 11:52:00;;;;;;;0.60;0.60;;;18.60;99.90;;;;;;5009125;28;20433;-76
2022/09/26 11:54:52;;;;;;;0.70;0.40;;;18.30;99.90;;;;;;5008121;28;20433;-76
2022/09/26 11:57:31;;;;;;;0.43;0.40;;;17.80;99.90;;;;;;4984448;28;20429;-77
2022/09/26 12:00:27;;;;;;;0.30;0.30;;;17.20;99.90;;;;;;5044560;28;20916;-77
2022/09/26 12:03:00;;;;;;;0.50;0.50;;;17.00;99.90;;;;;;5070821;28;20431;-77
2022/09/26 12:05:43;;;;;;;0.47;0.47;;;17.10;99.90;;;;;;5086879;28;20514;-76
2022/09/26 12:08:25;;;;;;;0.30;0.30;;;17.00;99.90;;;;;;5071285;28;20434;-77
2022/09/26 12:11:00;;;;;;;0.32;0.32;;;16.90;99.90;;;;;;5071060;28;20432;-76
2022/09/26 12:13:44;;;;;;;0.40;0.40;;;16.80;99.90;;;;;;5070483;28;21022;-77
2022/09/26 12:16:20;;;;;;;0.43;0.43;;;17.00;99.90;;;;;;5069511;28;21265;-77
2022/09/26 12:18:53;;;;;;;0.20;0.20;;;17.30;99.90;;;;;;5068896;28;20446;-76
2022/09/26 12:21:35;;;;;;;0.40;0.40;;;17.50;99.90;;;;;;5070828;28;20508;-76
2022/09/26 12:24:22;;;;;;;0.40;0.40;;;17.50;99.90;;;;;;5070646;28;20426;-76
2022/09/26 12:26:57;;;;;;;0.37;0.37;;;17.50;99.90;;;;;;5070472;28;20427;-77
2022/09/26 12:29:52;;;;;;;2.00;0.60;;;17.80;99.90;;;;;;5069102;28;20435;-77
2022/09/26 12:33:05;;;;;;;0.50;0.50;;;18.30;99.90;;;;;;5068482;28;20489;-76
2022/09/26 12:35:49;;;;;;;0.90;0.50;;;18.70;99.90;;;;;;5070351;28;20932;-76
2022/09/26 12:38:27;;;;;;;0.47;0.47;;;18.10;99.90;;;;;;5070710;28;20878;-77
2022/09/26 12:41:03;;;;;;;0.70;0.40;;;18.10;99.90;;;;;;5070411;28;20419;-75
2022/09/26 12:44:01;;;;;;;2.75;0.40;;;18.10;99.90;;;;;;5069751;28;20487;-76
2022/09/26 12:47:09;;;;;;;0.30;0.30;;;17.80;99.90;;;;;;5070071;28;20431;-76
2022/09/26 12:50:18;;;;;;;0.38;0.38;;;17.40;99.90;;;;;;5038333;28;20423;-77
2022/09/26 12:53:09;;;;;;;0.40;0.40;;;16.90;99.90;;;;;;5046337;28;20427;-76
2022/09/26 12:56:06;;;;;;;0.40;0.40;;;16.40;99.90;;;;;;5070159;28;20945;-77
2022/09/26 12:59:00;;;;;;;0.40;0.40;;;16.30;99.90;;;;;;5070490;28;20431;-77
2022/09/26 13:01:50;;;;;;;0.30;0.30;;;16.20;99.90;;;;;;5070158;28;20428;-75
2022/09/26 13:04:33;;;;;;;0.45;0.35;;;16.10;99.90;;;;;;5061877;28;20427;-77
2022/09/26 13:07:08;;;;;;;0.40;0.40;;;16.10;99.90;;;;;;5070032;28;20431;-75
2022/09/26 13:10:18;;;;;;;0.40;0.40;;;16.20;99.90;;;;;;5070461;28;20442;-76
2022/09/26 13:13:22;;;;;;;0.30;0.30;;;16.20;99.90;;;;;;5069802;28;21112;-76
2022/09/26 13:16:30;;;;;;;0.30;0.30;;;16.60;99.90;;;;;;5039160;28;20462;-76
2022/09/26 13:19:34;;;;;;;0.20;0.20;;;16.70;99.90;;;;;;5007443;28;20965;-76
2022/09/26 13:22:40;;;;;;;0.30;0.30;;;17.00;99.90;;;;;;5048152;28;20435;-76
2022/09/26 13:25:10;;;;;;;0.40;0.40;;;17.10;99.90;;;;;;5067198;28;20427;-77
2022/09/26 13:27:41;;;;;;;0.38;0.38;;;17.30;99.90;;;;;;5069917;28;20438;-76
2022/09/26 13:30:16;;;;;;;0.30;0.30;;;17.40;99.90;;;;;;5069897;28;20425;-76
2022/09/26 13:33:06;;;;;;;0.35;0.35;;;17.40;99.90;;;;;;5068616;28;20435;-75
2022/09/26 13:35:38;;;;;;;0.90;0.40;;;17.40;99.90;;;;;;5069731;28;20431;-78
2022/09/26 13:38:20;;;;;;;0.40;0.40;;;17.20;99.90;;;;;;5070090;28;20889;-76
2022/09/26 13:40:56;;;;;;;0.22;0.22;;;16.70;99.90;;;;;;5069446;28;20433;-76
2022/09/26 13:43:41;;;;;;;0.30;0.30;;;16.40;99.90;;;;;;5069519;28;20419;-76
2022/09/26 13:46:18;;;;;;;0.30;0.30;;;16.30;99.90;;;;;;5069843;28;20468;-77
2022/09/26 13:48:59;;;;;;;0.28;0.28;;;16.10;99.90;;;;;;5069685;28;20458;-76
2022/09/26 13:51:37;;;;;;;0.30;0.30;;;15.80;99.90;;;;;;5069737;28;20459;-75